Time;durP1;ratioP1;P1;durP2;ratioP2;P2;SDS_P1;SDS_P2;PMS_P1;PMS_P2;Temp;Humidity;BMP_temperature;BMP_pressure;BME280_temperature;BME280_humidity;BME280_pressure;Samples;Min_cycle;Max_cycle;Signal;HPM_P1;HPM_P2
2022/04/09 00:01:26;;;;;;;2.30;1.80;;;;;;;15.18;49.98;98362.87;1796551;79;21016;-59
2022/04/09 00:03:53;;;;;;;2.10;1.90;;;;;;;15.19;49.98;98358.36;1816297;78;21696;-59
2022/04/09 00:06:19;;;;;;;2.00;1.80;;;;;;;15.19;49.98;98357.02;1825695;78;21143;-60
2022/04/09 00:08:46;;;;;;;2.37;1.72;;;;;;;15.17;49.99;98355.10;1826047;78;21045;-60
2022/04/09 00:11:14;;;;;;;2.47;2.10;;;;;;;15.17;49.99;98348.42;1825796;78;21453;-60
2022/04/09 00:13:41;;;;;;;2.00;1.57;;;;;;;15.16;49.98;98350.78;1824929;78;20974;-60
2022/04/09 00:16:08;;;;;;;1.92;1.70;;;;;;;15.14;49.99;98347.84;1813606;78;21033;-59
2022/04/09 00:18:35;;;;;;;1.87;1.70;;;;;;;15.14;49.96;98351.84;1825712;78;21139;-60
2022/04/09 00:21:02;;;;;;;2.90;2.20;;;;;;;15.13;49.97;98351.55;1825586;78;20994;-59
2022/04/09 00:23:30;;;;;;;2.15;1.90;;;;;;;15.13;49.95;98347.53;1825864;78;20981;-59
2022/04/09 00:25:58;;;;;;;1.72;1.45;;;;;;;15.12;49.98;98345.08;1825759;78;21072;-59
2022/04/09 00:28:24;;;;;;;1.98;1.77;;;;;;;15.12;49.99;98339.23;1826007;78;21453;-60
2022/04/09 00:30:52;;;;;;;2.50;1.72;;;;;;;15.11;49.98;98336.25;1824594;78;21238;-60
2022/04/09 00:33:20;;;;;;;1.92;1.72;;;;;;;15.11;49.98;98347.48;1825876;78;21002;-60
2022/04/09 00:35:47;;;;;;;2.77;2.10;;;;;;;15.09;49.96;98343.69;1825851;78;21045;-60
2022/04/09 00:38:14;;;;;;;2.02;1.82;;;;;;;15.09;49.97;98343.69;1825866;78;20989;-59
2022/04/09 00:40:41;;;;;;;2.08;1.80;;;;;;;15.08;49.99;98344.73;1825900;78;21087;-60
2022/04/09 00:43:08;;;;;;;2.20;1.87;;;;;;;15.08;49.97;98354.09;1825772;78;22058;-61
2022/04/09 00:45:34;;;;;;;2.95;2.10;;;;;;;15.08;49.98;98351.94;1825821;78;21037;-61
2022/04/09 00:48:01;;;;;;;2.30;2.00;;;;;;;15.07;49.97;98353.00;1824596;78;21020;-59
2022/04/09 00:50:28;;;;;;;2.75;2.30;;;;;;;15.07;49.98;98355.68;1832870;77;21036;-60
2022/04/09 00:52:57;;;;;;;3.33;1.90;;;;;;;15.06;49.97;98358.05;1825831;78;20978;-59
2022/04/09 00:56:13;;;;;;;2.55;2.10;;;;;;;15.06;49.95;98362.06;1825858;78;21107;-59
2022/04/09 00:57:52;;;;;;;2.08;1.87;;;;;;;15.05;49.95;98348.41;1825639;78;20990;-60
2022/04/09 01:00:20;;;;;;;2.15;1.95;;;;;;;15.04;49.95;98344.90;1825885;78;21030;-60
2022/04/09 01:02:48;;;;;;;2.10;1.82;;;;;;;15.04;49.95;98342.75;1825704;77;20982;-58
2022/04/09 01:05:15;;;;;;;3.25;2.00;;;;;;;15.04;49.96;98349.44;1824779;78;21001;-59
2022/04/09 01:07:43;;;;;;;3.35;1.90;;;;;;;15.02;49.96;98333.63;1824766;78;21363;-60
2022/04/09 01:10:11;;;;;;;3.25;2.87;;;;;;;15.03;49.95;98337.94;1819167;78;21119;-60
2022/04/09 01:12:39;;;;;;;3.05;1.92;;;;;;;15.03;49.95;98345.96;1805734;78;21477;-60
2022/04/09 01:15:07;;;;;;;3.87;2.50;;;;;;;15.01;49.94;98350.73;1805525;78;21073;-59
2022/04/09 01:17:36;;;;;;;2.33;1.77;;;;;;;15.01;49.95;98346.72;1805818;78;21021;-58
2022/04/09 01:20:22;;;;;;;3.10;1.98;;;;;;;15.01;49.95;98344.55;1825866;78;21109;-59
2022/04/09 01:22:50;;;;;;;2.05;1.80;;;;;;;15.01;49.95;98344.05;1809857;78;21037;-60
2022/04/09 01:25:18;;;;;;;2.20;1.95;;;;;;;14.97;49.94;98342.88;1793415;80;21010;-60
2022/04/09 01:27:47;;;;;;;3.80;2.35;;;;;;;14.99;49.95;98346.13;1793370;80;21001;-60
2022/04/09 01:30:13;;;;;;;3.10;2.35;;;;;;;14.98;49.96;98343.69;1793458;80;21041;-60
2022/04/09 01:32:40;;;;;;;2.55;1.95;;;;;;;14.98;49.93;98341.02;1793333;80;21137;-60
2022/04/09 01:35:08;;;;;;;2.45;2.00;;;;;;;14.98;49.95;98349.03;1773758;80;21073;-59
2022/04/09 01:37:36;;;;;;;2.95;2.25;;;;;;;14.98;49.93;98335.12;1793371;80;20970;-61
2022/04/09 01:40:04;;;;;;;2.80;2.22;;;;;;;14.98;49.92;98340.48;1794415;78;21430;-59
2022/04/09 01:42:31;;;;;;;2.67;2.08;;;;;;;14.97;49.93;98330.84;1793740;79;21021;-60
2022/04/09 01:44:58;;;;;;;2.17;1.98;;;;;;;14.97;49.92;98330.01;1793409;80;21149;-60
2022/04/09 01:47:25;;;;;;;2.33;2.00;;;;;;;14.96;49.93;98346.58;1793346;79;21033;-60
2022/04/09 01:49:54;;;;;;;2.27;2.00;;;;;;;14.96;49.93;98337.75;1793385;80;20998;-59
2022/04/09 01:52:20;;;;;;;2.47;2.10;;;;;;;14.96;49.91;98339.90;1793459;79;21060;-61
2022/04/09 01:54:48;;;;;;;2.42;1.87;;;;;;;14.96;49.92;98337.22;1793427;79;20994;-59
2022/04/09 01:57:15;;;;;;;2.62;2.00;;;;;;;14.94;49.92;98325.95;1802863;78;21271;-59
2022/04/09 01:59:45;;;;;;;2.33;1.98;;;;;;;14.96;49.91;98331.07;1825793;78;20966;-59
2022/04/09 02:02:13;;;;;;;3.08;1.80;;;;;;;14.94;49.89;98320.06;1825781;78;21025;-59
2022/04/09 02:04:40;;;;;;;3.47;2.10;;;;;;;14.94;49.91;98320.59;1830087;78;20982;-60
2022/04/09 02:07:07;;;;;;;2.52;1.90;;;;;;;14.94;49.89;98320.59;1831900;78;21029;-60
2022/04/09 02:09:34;;;;;;;2.12;1.87;;;;;;;14.95;49.91;98316.89;1831930;78;21127;-60
2022/04/09 02:12:02;;;;;;;3.27;2.08;;;;;;;14.94;49.89;98306.70;1831916;78;20985;-59
2022/04/09 02:14:30;;;;;;;2.65;1.90;;;;;;;14.93;49.91;98305.09;1830479;78;20977;-60
2022/04/09 02:16:58;;;;;;;2.20;2.00;;;;;;;14.93;49.89;98301.58;1831937;77;21028;-60
2022/04/09 02:19:24;;;;;;;2.10;1.80;;;;;;;14.94;49.88;98303.22;1832184;78;21480;-59
2022/04/09 02:21:51;;;;;;;2.65;2.10;;;;;;;14.94;49.88;98291.99;1831889;78;21131;-59
2022/04/09 02:24:20;;;;;;;3.08;1.85;;;;;;;14.93;49.89;98274.34;1831878;78;21040;-59
2022/04/09 02:26:47;;;;;;;2.62;2.00;;;;;;;14.93;49.88;98266.81;1831890;78;21059;-59
2022/04/09 02:29:14;;;;;;;2.35;1.95;;;;;;;14.93;49.87;98256.95;1831909;78;21048;-60
2022/04/09 02:31:41;;;;;;;2.62;2.40;;;;;;;14.93;49.87;98241.41;1804822;78;20997;-59
2022/04/09 02:34:08;;;;;;;2.27;1.87;;;;;;;14.93;49.89;98241.41;1799343;79;22018;-61
2022/04/09 02:36:36;;;;;;;2.42;1.77;;;;;;;14.92;49.89;98244.62;1799145;79;21064;-60
2022/04/09 02:39:03;;;;;;;2.47;1.95;;;;;;;14.92;49.87;98253.98;1799500;79;21454;-61
2022/04/09 02:41:30;;;;;;;2.52;1.77;;;;;;;14.92;49.87;98257.98;1799320;79;20977;-60
2022/04/09 02:43:57;;;;;;;2.80;2.00;;;;;;;14.93;49.85;98261.47;1799164;79;21029;-60
2022/04/09 02:46:25;;;;;;;2.17;1.98;;;;;;;14.93;49.85;98254.28;1799301;79;21085;-60
2022/04/09 02:48:52;;;;;;;2.83;1.98;;;;;;;14.92;49.86;98247.30;1800275;78;21028;-60
2022/04/09 02:51:20;;;;;;;3.35;1.75;;;;;;;14.92;49.86;98252.64;1799231;79;20993;-60
2022/04/09 02:53:47;;;;;;;2.37;1.80;;;;;;;14.92;49.85;98260.66;1799142;79;21009;-60
2022/04/09 02:56:14;;;;;;;2.35;2.15;;;;;;;14.92;49.84;98250.50;1807643;78;20977;-59
2022/04/09 02:58:41;;;;;;;2.17;1.82;;;;;;;14.93;49.85;98250.77;1815828;78;22009;-59
2022/04/09 03:01:10;;;;;;;2.10;1.80;;;;;;;14.93;49.85;98254.78;1831803;77;21009;-60
2022/04/09 03:03:37;;;;;;;2.35;2.02;;;;;;;14.93;49.82;98245.42;1831632;78;21060;-59
2022/04/09 03:06:04;;;;;;;2.45;2.02;;;;;;;14.93;49.82;98248.94;1831293;78;21033;-60
2022/04/09 03:08:32;;;;;;;2.87;1.72;;;;;;;14.93;49.82;98241.41;1831936;77;20978;-58
2022/04/09 03:10:59;;;;;;;2.35;2.05;;;;;;;14.93;49.81;98241.41;1831864;78;21977;-60
2022/04/09 03:13:27;;;;;;;2.17;1.90;;;;;;;14.93;49.81;98250.27;1831892;78;20997;-60
2022/04/09 03:15:55;;;;;;;1.82;1.72;;;;;;;14.92;49.80;98244.62;1831871;77;21045;-60
2022/04/09 03:18:23;;;;;;;2.10;1.70;;;;;;;14.93;49.81;98254.78;1831790;78;21025;-60
2022/04/09 03:20:51;;;;;;;1.98;1.70;;;;;;;14.93;49.81;98246.77;1823258;78;21512;-60
2022/04/09 03:23:20;;;;;;;2.30;1.72;;;;;;;14.93;49.79;98246.27;1799157;79;21043;-60
2022/04/09 03:25:48;;;;;;;2.10;1.90;;;;;;;14.92;49.78;98239.27;1798955;79;20998;-58
2022/04/09 03:28:16;;;;;;;2.00;1.80;;;;;;;14.95;49.78;98240.69;1799093;79;21505;-59
2022/04/09 03:30:44;;;;;;;2.60;2.02;;;;;;;14.94;49.76;98233.70;1799120;79;20970;-58
2022/04/09 03:33:12;;;;;;;2.20;1.90;;;;;;;14.93;49.76;98230.22;1799272;79;21017;-59
2022/04/09 03:35:40;;;;;;;3.12;2.12;;;;;;;14.94;49.75;98236.38;1799274;79;21200;-61
2022/04/09 03:38:11;;;;;;;2.62;1.98;;;;;;;14.94;49.78;98249.74;1800056;78;21004;-61
2022/04/09 03:40:46;;;;;;;2.83;2.12;;;;;;;14.93;49.78;98256.12;1798910;79;21008;-58
2022/04/09 03:43:14;;;;;;;2.58;1.98;;;;;;;14.93;49.76;98265.48;1799121;79;21037;-59
2022/04/09 03:45:42;;;;;;;2.02;1.82;;;;;;;14.93;49.76;98275.67;1799235;79;20989;-60
2022/04/09 03:48:09;;;;;;;2.77;2.08;;;;;;;14.93;49.76;98281.52;1799042;79;21240;-60
2022/04/09 03:50:39;;;;;;;2.47;1.90;;;;;;;14.93;49.75;98286.37;1799162;79;21001;-60
2022/04/09 03:53:07;;;;;;;2.60;1.90;;;;;;;14.93;49.75;98282.86;1799074;79;21095;-59
2022/04/09 03:55:33;;;;;;;2.45;1.50;;;;;;;14.94;49.76;98283.16;1800266;78;21012;-59
2022/04/09 03:58:01;;;;;;;2.85;2.08;;;;;;;14.95;49.78;98306.20;1831598;78;21662;-60
2022/04/09 04:00:29;;;;;;;2.58;2.12;;;;;;;14.94;49.75;98316.59;1831761;78;20998;-59
2022/04/09 04:02:57;;;;;;;2.62;2.02;;;;;;;14.93;49.76;98309.09;1831695;78;20990;-60
2022/04/09 04:05:25;;;;;;;2.12;1.77;;;;;;;14.93;49.76;98317.62;1827287;78;21001;-61
2022/04/09 04:07:53;;;;;;;1.75;1.62;;;;;;;14.93;49.75;98322.47;1825892;78;21030;-59
2022/04/09 04:10:21;;;;;;;2.20;1.47;;;;;;;14.93;49.74;98335.84;1825680;78;21020;-59
2022/04/09 04:12:50;;;;;;;2.25;1.75;;;;;;;14.93;49.76;98340.34;1809745;78;21331;-60
2022/04/09 04:15:18;;;;;;;2.00;1.65;;;;;;;14.93;49.75;98343.86;1793140;80;20974;-59
2022/04/09 04:19:25;;;;;;;2.05;1.77;;;;;;;14.98;49.77;98332.45;1815349;79;29037;-60
2022/04/09 04:21:55;;;;;;;2.27;1.87;;;;;;;14.94;49.74;98340.66;1788386;80;21031;-60
2022/04/09 04:24:23;;;;;;;1.70;1.50;;;;;;;14.94;49.74;98340.66;1785576;80;21236;-61
2022/04/09 04:26:52;;;;;;;2.50;2.17;;;;;;;14.95;49.75;98347.64;1753372;81;20923;-60
2022/04/09 04:29:20;;;;;;;2.47;2.27;;;;;;;14.94;49.74;98340.66;1760760;80;20938;-60
2022/04/09 04:31:47;;;;;;;2.52;2.10;;;;;;;14.94;49.74;98339.31;1789713;80;21000;-59
2022/04/09 04:34:14;;;;;;;2.75;2.15;;;;;;;14.94;49.75;98338.78;1790225;80;21514;-60
2022/04/09 04:36:42;;;;;;;2.50;2.02;;;;;;;14.95;49.78;98347.64;1789852;80;21195;-59
2022/04/09 04:39:12;;;;;;;1.90;1.70;;;;;;;14.93;49.76;98347.87;1789705;80;20962;-59
2022/04/09 04:41:39;;;;;;;3.27;2.17;;;;;;;14.94;49.76;98351.34;1698407;83;22384;-59
2022/04/09 04:44:08;;;;;;;2.42;2.05;;;;;;;14.94;49.75;98354.02;1728223;83;21131;-60
2022/04/09 04:46:38;;;;;;;2.95;1.90;;;;;;;14.94;49.75;98345.47;1721516;83;21038;-59
2022/04/09 04:49:05;;;;;;;2.92;2.00;;;;;;;14.94;49.76;98339.31;1723990;83;21153;-60
2022/04/09 04:51:32;;;;;;;2.20;1.82;;;;;;;14.93;49.79;98333.66;1720303;83;21030;-58
2022/04/09 04:54:01;;;;;;;2.67;2.02;;;;;;;14.92;49.79;98336.87;1723703;83;21046;-60
2022/04/09 04:56:27;;;;;;;3.20;2.10;;;;;;;14.93;49.79;98332.33;1722874;83;21013;-60
2022/04/09 04:58:57;;;;;;;2.72;2.05;;;;;;;14.92;49.80;98339.54;1723725;83;21009;-60
2022/04/09 05:01:27;;;;;;;2.85;2.05;;;;;;;14.93;49.80;98335.00;1711675;83;21038;-59
2022/04/09 05:03:55;;;;;;;2.17;1.98;;;;;;;14.93;49.79;98318.45;1715395;82;21093;-60
2022/04/09 05:06:24;;;;;;;1.98;1.75;;;;;;;14.92;49.79;98297.29;1720836;83;21528;-59
2022/04/09 05:08:51;;;;;;;2.37;1.90;;;;;;;14.93;49.82;98300.23;1721016;83;21101;-58
2022/04/09 05:11:21;;;;;;;2.47;1.87;;;;;;;14.92;49.81;98290.61;1719968;83;21093;-59
2022/04/09 05:13:48;;;;;;;2.10;1.90;;;;;;;14.92;49.81;98282.58;1721049;83;21143;-59
2022/04/09 05:16:16;;;;;;;2.22;1.80;;;;;;;14.92;49.82;98283.39;1721022;83;21002;-59
2022/04/09 05:18:45;;;;;;;2.98;2.12;;;;;;;14.92;49.81;98274.56;1711729;82;21063;-60
2022/04/09 05:21:13;;;;;;;2.58;2.00;;;;;;;14.91;49.82;98269.75;1716540;83;21030;-59
2022/04/09 05:23:40;;;;;;;2.47;2.12;;;;;;;14.92;49.81;98262.53;1721649;83;21191;-60
2022/04/09 05:26:07;;;;;;;1.77;1.67;;;;;;;14.93;49.83;98254.78;1710353;84;21129;-60
2022/04/09 05:28:35;;;;;;;3.15;1.85;;;;;;;14.92;49.83;98247.30;1713325;83;21074;-59
2022/04/09 05:31:03;;;;;;;2.42;1.92;;;;;;;14.93;49.82;98241.41;1707486;83;21018;-60
2022/04/09 05:33:29;;;;;;;2.00;1.80;;;;;;;14.93;49.85;98237.41;1746682;80;21026;-59
2022/04/09 05:35:57;;;;;;;2.50;1.85;;;;;;;14.92;49.82;98233.92;1743280;82;21092;-60
2022/04/09 05:38:25;;;;;;;3.27;1.82;;;;;;;14.93;49.86;98232.05;1736984;80;21842;-59
2022/04/09 05:40:51;;;;;;;2.02;1.70;;;;;;;14.94;49.83;98231.02;1775721;80;21030;-59
2022/04/09 05:43:19;;;;;;;2.25;2.05;;;;;;;14.93;49.85;98224.87;1775948;80;21014;-59
2022/04/09 05:45:47;;;;;;;2.42;1.87;;;;;;;14.92;49.86;98225.91;1776255;80;21487;-59
2022/04/09 05:48:16;;;;;;;2.72;2.02;;;;;;;14.94;49.85;98227.81;1775905;80;21030;-60
2022/04/09 05:50:44;;;;;;;1.90;1.70;;;;;;;14.93;49.85;98224.87;1709464;83;21167;-60
2022/04/09 05:53:13;;;;;;;2.52;2.22;;;;;;;14.96;49.86;98221.44;1709675;84;21007;-60
2022/04/09 05:55:40;;;;;;;1.85;1.67;;;;;;;14.94;49.85;98215.78;1712072;83;21099;-59
2022/04/09 05:58:06;;;;;;;1.72;1.60;;;;;;;14.96;49.86;98217.42;1796052;79;21063;-59
2022/04/09 06:00:35;;;;;;;2.22;1.80;;;;;;;14.95;49.85;98212.61;1715548;83;21547;-60
2022/04/09 06:03:06;;;;;;;1.90;1.70;;;;;;;14.97;49.85;98208.34;1794414;79;21134;-59
2022/04/09 06:05:35;;;;;;;2.30;1.90;;;;;;;14.97;49.84;98193.63;1795852;79;21554;-61
2022/04/09 06:08:04;;;;;;;2.12;1.52;;;;;;;14.97;49.83;98193.13;1795733;79;21032;-60
2022/04/09 06:10:33;;;;;;;1.70;1.57;;;;;;;14.98;49.83;98198.75;1715415;83;21593;-59
2022/04/09 06:13:00;;;;;;;2.83;2.05;;;;;;;14.98;49.83;98194.74;1764920;79;21015;-60
2022/04/09 06:15:29;;;;;;;1.60;1.50;;;;;;;15.00;49.82;98197.19;1764454;81;21491;-60
2022/04/09 06:18:01;;;;;;;2.02;1.82;;;;;;;15.00;49.82;98191.84;1762919;80;21035;-60
2022/04/09 06:20:27;;;;;;;2.40;1.60;;;;;;;15.00;49.82;98186.49;1759723;81;21038;-60
2022/04/09 06:22:54;;;;;;;2.33;1.87;;;;;;;15.01;49.81;98186.77;1758916;81;21023;-58
2022/04/09 06:25:20;;;;;;;1.90;1.60;;;;;;;15.01;49.82;98189.44;1759079;81;21163;-58
2022/04/09 06:27:47;;;;;;;3.05;1.90;;;;;;;15.01;49.82;98174.23;1759597;80;21277;-59
2022/04/09 06:30:14;;;;;;;2.02;1.80;;;;;;;15.03;49.80;98171.33;1758992;81;21003;-59
2022/04/09 06:32:43;;;;;;;1.87;1.70;;;;;;;15.03;49.79;98174.00;1758705;81;21086;-59
2022/04/09 06:35:10;;;;;;;2.05;1.80;;;;;;;15.03;49.79;98173.47;1757154;80;21038;-61
2022/04/09 06:37:38;;;;;;;2.17;1.65;;;;;;;15.04;49.78;98183.10;1757127;80;21507;-58
2022/04/09 06:40:07;;;;;;;2.45;1.80;;;;;;;15.05;49.78;98176.72;1735250;82;21099;-59
2022/04/09 06:42:36;;;;;;;2.33;1.98;;;;;;;15.06;49.78;98170.30;1714354;82;21051;-59
2022/04/09 06:45:09;;;;;;;2.35;1.90;;;;;;;15.07;49.79;98179.97;1718425;80;22846;-60
2022/04/09 06:47:39;;;;;;;2.27;1.70;;;;;;;15.08;49.79;98177.57;1708081;83;21046;-60
2022/04/09 06:50:11;;;;;;;2.50;2.00;;;;;;;15.10;49.78;98176.00;1711468;83;21050;-59
2022/04/09 06:52:40;;;;;;;2.60;1.85;;;;;;;15.10;49.77;98174.16;1711659;83;21194;-59
2022/04/09 06:55:09;;;;;;;1.80;1.55;;;;;;;15.11;49.80;98166.95;1709030;83;21070;-59
2022/04/09 06:57:41;;;;;;;2.20;1.90;;;;;;;15.11;49.80;98174.44;1743748;82;21014;-59
2022/04/09 07:00:12;;;;;;;3.47;2.27;;;;;;;15.14;49.78;98166.45;1743438;82;21085;-59
2022/04/09 07:02:39;;;;;;;2.52;1.90;;;;;;;15.14;49.80;98163.28;1753405;80;21035;-59
2022/04/09 07:05:08;;;;;;;2.10;1.90;;;;;;;15.14;49.80;98163.28;1767573;81;22154;-61
2022/04/09 07:07:35;;;;;;;2.08;1.65;;;;;;;15.16;49.81;98163.55;1767661;81;20985;-60
2022/04/09 07:10:07;;;;;;;1.67;1.57;;;;;;;15.17;49.79;98159.84;1767901;81;21078;-59
2022/04/09 07:12:34;;;;;;;2.02;1.67;;;;;;;15.18;49.79;98173.48;1767910;81;21023;-61
2022/04/09 07:15:01;;;;;;;1.65;1.55;;;;;;;15.19;49.81;98171.12;1767540;81;21059;-59
2022/04/09 07:17:30;;;;;;;1.85;1.70;;;;;;;15.19;49.82;98181.28;1767677;81;21011;-60
2022/04/09 07:20:03;;;;;;;2.27;1.50;;;;;;;15.21;49.81;98182.39;1762601;80;21070;-60
2022/04/09 07:22:31;;;;;;;2.20;1.75;;;;;;;15.22;49.84;98174.64;1758902;81;21047;-60
2022/04/09 07:24:58;;;;;;;2.35;1.87;;;;;;;15.22;49.87;98165.27;1758822;81;21364;-60
2022/04/09 07:27:39;;;;;;;1.95;1.50;;;;;;;15.23;49.86;98174.94;1759350;81;21015;-59
2022/04/09 07:30:09;;;;;;;1.82;1.70;;;;;;;15.24;49.85;98163.17;1758898;81;21216;-60
2022/04/09 07:32:35;;;;;;;2.30;1.60;;;;;;;15.24;49.88;98163.17;1759309;81;21339;-61
2022/04/09 07:35:04;;;;;;;1.98;1.67;;;;;;;15.25;49.88;98160.80;1758886;81;21034;-60
2022/04/09 07:37:31;;;;;;;2.00;1.80;;;;;;;15.26;49.92;98170.44;1765133;80;21051;-61
2022/04/09 07:39:59;;;;;;;2.47;1.75;;;;;;;15.27;49.93;98163.52;1766926;80;21003;-60
2022/04/09 07:42:25;;;;;;;2.35;1.87;;;;;;;15.28;49.91;98167.83;1769800;80;21798;-60
2022/04/09 07:44:52;;;;;;;2.70;1.85;;;;;;;15.29;49.92;98152.59;1774303;80;21043;-59
2022/04/09 07:47:19;;;;;;;1.70;1.60;;;;;;;15.30;49.94;98152.35;1774127;80;21073;-60
2022/04/09 07:49:49;;;;;;;2.17;1.70;;;;;;;15.32;49.91;98146.77;1774058;80;21021;-60
2022/04/09 07:52:15;;;;;;;1.90;1.70;;;;;;;15.33;49.92;98144.37;1774340;80;21033;-59
2022/04/09 07:54:42;;;;;;;2.15;1.72;;;;;;;15.34;49.91;98134.77;1774023;79;21216;-59
2022/04/09 07:57:09;;;;;;;2.60;2.10;;;;;;;15.37;49.91;98143.38;1800775;79;21032;-61
2022/04/09 07:59:35;;;;;;;2.15;1.87;;;;;;;15.38;49.90;98149.02;1800842;79;21123;-59
2022/04/09 08:02:02;;;;;;;3.22;2.00;;;;;;;15.40;49.91;98142.91;1729655;83;21198;-60
2022/04/09 08:04:30;;;;;;;2.30;1.50;;;;;;;15.40;49.94;98143.72;1730113;83;21098;-60
2022/04/09 08:06:56;;;;;;;2.22;1.82;;;;;;;15.42;49.90;98142.14;1729741;83;21056;-59
2022/04/09 08:09:23;;;;;;;2.17;1.80;;;;;;;15.44;49.90;98142.72;1800781;79;20991;-60
2022/04/09 08:11:49;;;;;;;1.77;1.57;;;;;;;15.45;49.87;98137.63;1712284;83;21090;-58
2022/04/09 08:14:16;;;;;;;1.77;1.67;;;;;;;15.45;49.87;98134.45;1777882;80;21074;-59
2022/04/09 08:16:44;;;;;;;1.92;1.70;;;;;;;15.48;49.86;98127.80;1778169;80;21534;-60
2022/04/09 08:19:11;;;;;;;2.05;1.67;;;;;;;15.50;49.84;98131.05;1777883;80;21147;-60
2022/04/09 08:21:39;;;;;;;2.22;1.60;;;;;;;15.51;49.82;98138.84;1777975;80;21018;-59
2022/04/09 08:24:06;;;;;;;2.02;1.82;;;;;;;15.52;49.80;98129.75;1778088;80;20999;-60
2022/04/09 08:26:33;;;;;;;2.50;1.72;;;;;;;15.54;49.79;98141.02;1778296;80;21046;-60
2022/04/09 08:29:01;;;;;;;1.77;1.45;;;;;;;15.57;49.77;98148.28;1779355;80;21073;-59
2022/04/09 08:31:28;;;;;;;2.33;1.90;;;;;;;15.58;49.72;98140.02;1779684;80;21189;-59
2022/04/09 08:33:56;;;;;;;1.80;1.70;;;;;;;15.60;49.72;98141.13;1779546;80;21014;-60
2022/04/09 08:36:23;;;;;;;2.90;2.00;;;;;;;15.61;49.69;98150.27;1779663;80;21036;-60
2022/04/09 08:38:51;;;;;;;2.00;1.80;;;;;;;15.63;49.69;98148.69;1779539;80;21526;-60
2022/04/09 08:41:18;;;;;;;2.00;1.80;;;;;;;15.65;49.71;98146.59;1779640;80;21041;-60
2022/04/09 08:43:44;;;;;;;2.02;1.72;;;;;;;15.65;49.71;98142.58;1778604;80;21878;-60
2022/04/09 08:46:11;;;;;;;2.20;1.90;;;;;;;15.66;49.71;98140.97;1756521;80;21010;-59
2022/04/09 08:48:38;;;;;;;1.70;1.60;;;;;;;15.68;49.70;98154.12;1760778;80;21088;-60
2022/04/09 08:51:05;;;;;;;2.02;1.70;;;;;;;15.68;49.68;98144.25;1779465;80;20991;-61
2022/04/09 08:53:31;;;;;;;1.65;1.55;;;;;;;15.68;49.66;98142.91;1779557;80;21077;-60
2022/04/09 08:55:58;;;;;;;2.10;1.52;;;;;;;15.71;49.68;98145.09;1749470;80;21271;-60
2022/04/09 08:58:24;;;;;;;2.08;1.75;;;;;;;15.71;49.67;98145.09;1779752;80;21486;-60
2022/04/09 09:00:51;;;;;;;2.08;1.60;;;;;;;15.73;49.70;98141.67;1779340;80;21030;-60
2022/04/09 09:03:18;;;;;;;1.87;1.60;;;;;;;15.75;49.65;98145.98;1779657;80;21086;-59
2022/04/09 09:05:52;;;;;;;2.47;1.70;;;;;;;15.75;49.67;98142.78;1779798;80;21011;-61
2022/04/09 09:08:15;;;;;;;2.08;1.65;;;;;;;15.76;49.67;98147.09;1779219;80;21459;-60
2022/04/09 09:10:42;;;;;;;1.87;1.70;;;;;;;15.76;49.65;98156.46;1779698;80;21053;-60
2022/04/09 09:13:11;;;;;;;2.52;1.72;;;;;;;15.79;49.63;98137.76;1779738;80;21158;-59
2022/04/09 09:15:53;;;;;;;1.70;1.27;;;;;;;15.79;49.62;98147.93;1779728;80;21046;-59
2022/04/09 09:18:23;;;;;;;1.90;1.80;;;;;;;15.79;49.59;98137.22;1778344;79;20995;-59
2022/04/09 09:20:54;;;;;;;1.65;1.30;;;;;;;15.81;49.56;98141.80;1777976;80;21489;-62
2022/04/09 09:23:23;;;;;;;1.80;1.57;;;;;;;15.81;49.55;98140.47;1778130;80;21054;-60
2022/04/09 09:25:55;;;;;;;1.82;1.47;;;;;;;15.84;49.54;98150.70;1778073;80;21006;-62
2022/04/09 09:28:26;;;;;;;2.15;1.95;;;;;;;15.85;49.56;98142.14;1778121;80;21003;-59
2022/04/09 09:30:53;;;;;;;1.85;1.55;;;;;;;15.85;49.59;98140.27;1778306;80;21066;-59
2022/04/09 09:33:20;;;;;;;2.15;1.80;;;;;;;15.86;49.56;98142.44;1778059;80;21192;-59
2022/04/09 09:35:51;;;;;;;2.58;1.55;;;;;;;15.86;49.55;98140.57;1775382;80;21274;-61
2022/04/09 09:38:28;;;;;;;2.58;1.65;;;;;;;15.88;49.54;98131.77;1774588;80;21021;-60
2022/04/09 09:40:58;;;;;;;2.10;1.67;;;;;;;15.89;49.54;98136.59;1774298;80;21031;-60
2022/04/09 09:43:26;;;;;;;2.00;1.60;;;;;;;15.90;49.55;98130.99;1774212;80;21089;-59
2022/04/09 09:45:54;;;;;;;1.62;1.52;;;;;;;15.90;49.55;98128.31;1774235;80;22061;-60
2022/04/09 09:48:29;;;;;;;2.15;1.70;;;;;;;15.92;49.56;98119.52;1774488;80;21007;-59
2022/04/09 09:50:57;;;;;;;1.77;1.40;;;;;;;15.94;49.51;98119.81;1774186;80;21026;-60
2022/04/09 09:53:33;;;;;;;2.67;1.70;;;;;;;15.94;49.52;98117.94;1758748;80;21031;-59
2022/04/09 09:56:01;;;;;;;2.08;1.60;;;;;;;15.96;49.55;98103.77;1758947;81;21082;-60
2022/04/09 09:58:29;;;;;;;2.35;1.67;;;;;;;15.99;49.61;98107.83;1758901;81;21216;-60
2022/04/09 10:00:59;;;;;;;3.12;1.60;;;;;;;16.00;49.71;98096.07;1759097;81;21043;-60
2022/04/09 10:03:27;;;;;;;1.87;1.30;;;;;;;16.02;49.64;98090.74;1758976;81;20987;-60
2022/04/09 10:05:54;;;;;;;2.08;1.62;;;;;;;16.03;49.60;98078.98;1758965;81;21601;-59
2022/04/09 10:08:21;;;;;;;1.40;1.30;;;;;;;16.03;49.57;98076.31;1759024;81;21066;-60
2022/04/09 10:10:50;;;;;;;1.72;1.45;;;;;;;16.05;49.53;98078.22;1759468;80;21736;-61
2022/04/09 10:13:19;;;;;;;2.27;1.72;;;;;;;16.06;49.51;98067.77;1758929;81;21495;-60
2022/04/09 10:15:50;;;;;;;1.72;1.50;;;;;;;16.06;49.51;98075.80;1759236;81;21085;-61
2022/04/09 10:18:23;;;;;;;2.25;1.77;;;;;;;16.06;49.51;98093.22;1758942;81;20983;-60
2022/04/09 10:20:54;;;;;;;1.85;1.65;;;;;;;16.07;49.50;98094.02;1763124;81;21035;-59
2022/04/09 10:23:23;;;;;;;1.82;1.50;;;;;;;16.07;49.52;98088.66;1736578;81;21490;-59
2022/04/09 10:25:53;;;;;;;1.95;1.62;;;;;;;16.08;49.51;98083.06;1765926;80;21572;-58
2022/04/09 10:28:36;;;;;;;1.80;1.70;;;;;;;16.08;49.52;98076.91;1782502;80;21007;-59
2022/04/09 10:31:25;;;;;;;1.67;1.57;;;;;;;16.08;49.51;98083.60;1782591;80;21026;-60
2022/04/09 10:33:56;;;;;;;1.95;1.70;;;;;;;16.07;49.51;98080.63;1782362;80;21085;-61
2022/04/09 10:36:47;;;;;;;2.15;1.57;;;;;;;16.06;49.50;98077.68;1782708;80;21132;-59
2022/04/09 10:39:57;;;;;;;1.75;1.65;;;;;;;16.05;49.50;98076.88;1741722;80;21103;-60
2022/04/09 10:41:59;;;;;;;2.17;1.50;;;;;;;16.05;49.49;98080.06;1771145;80;21049;-59
2022/04/09 10:44:52;;;;;;;1.90;1.72;;;;;;;16.04;49.49;98078.45;1768637;80;21034;-59
2022/04/09 10:47:20;;;;;;;2.02;1.52;;;;;;;16.04;49.47;98079.80;1764425;81;20983;-59
2022/04/09 10:50:08;;;;;;;1.80;1.60;;;;;;;16.03;49.51;98079.49;1764410;81;21187;-59
2022/04/09 10:52:37;;;;;;;2.20;1.77;;;;;;;16.01;49.52;98070.39;1764407;81;21103;-59
2022/04/09 10:55:12;;;;;;;1.67;1.50;;;;;;;16.01;49.50;98066.88;1712420;81;21537;-60
2022/04/09 10:57:43;;;;;;;1.80;1.70;;;;;;;16.00;49.53;98059.91;1757741;80;21514;-60
2022/04/09 11:00:26;;;;;;;1.47;1.35;;;;;;;16.00;49.52;98059.91;1777418;80;21085;-60
2022/04/09 11:03:17;;;;;;;1.75;1.55;;;;;;;15.98;49.57;98056.67;1782090;80;21502;-60
2022/04/09 11:05:44;;;;;;;1.60;1.50;;;;;;;15.98;49.54;98061.48;1780987;80;21528;-60
2022/04/09 11:08:14;;;;;;;2.35;1.80;;;;;;;15.98;49.55;98053.99;1784076;80;21061;-60
2022/04/09 11:10:45;;;;;;;2.15;1.50;;;;;;;15.97;49.59;98053.70;1783803;80;21026;-60
2022/04/09 11:13:13;;;;;;;1.70;1.60;;;;;;;15.97;49.58;98040.30;1783913;80;21446;-60
2022/04/09 11:15:40;;;;;;;1.90;1.62;;;;;;;15.96;49.56;98044.86;1784126;80;21156;-60
2022/04/09 11:18:08;;;;;;;2.02;1.67;;;;;;;15.96;49.56;98043.52;1782959;80;21530;-59
2022/04/09 11:20:36;;;;;;;1.80;1.70;;;;;;;15.96;49.58;98052.89;1780897;80;21372;-59
2022/04/09 11:23:14;;;;;;;1.67;1.47;;;;;;;15.97;49.58;98053.70;1777886;80;20971;-60
2022/04/09 11:25:43;;;;;;;2.00;1.52;;;;;;;15.96;49.56;98062.27;1778023;80;22053;-59
2022/04/09 11:28:20;;;;;;;1.60;1.40;;;;;;;15.96;49.59;98062.80;1778279;80;21079;-59
2022/04/09 11:31:04;;;;;;;1.70;1.60;;;;;;;15.96;49.59;98074.31;1777894;80;21050;-59
2022/04/09 11:33:28;;;;;;;1.40;1.30;;;;;;;15.97;49.58;98077.80;1776287;80;21041;-60
2022/04/09 11:35:55;;;;;;;2.02;1.82;;;;;;;15.95;49.61;98087.41;1762703;79;21070;-60
2022/04/09 11:38:25;;;;;;;1.82;1.57;;;;;;;15.96;49.61;98090.38;1774258;80;21010;-60
2022/04/09 11:40:54;;;;;;;2.02;1.57;;;;;;;15.96;49.59;98097.08;1774139;80;21537;-60
2022/04/09 11:43:22;;;;;;;1.80;1.67;;;;;;;15.96;49.61;98099.76;1774221;80;20987;-60